createdAt,value
2023-03-18T00:01:11.606Z,98197.19
2023-03-18T00:03:40.028Z,98203.22
2023-03-18T00:06:18.519Z,98201.22
2023-03-18T00:08:47.944Z,98199.44
2023-03-18T00:11:18.779Z,98199.78
2023-03-18T00:13:46.708Z,98201.00
2023-03-18T00:16:15.263Z,98194.97
2023-03-18T00:18:43.321Z,98194.44
2023-03-18T00:21:11.157Z,98194.44
2023-03-18T00:23:39.637Z,98205.34
2023-03-18T00:26:09.085Z,98199.47
2023-03-18T00:28:38.759Z,98193.31
2023-03-18T00:31:13.770Z,98193.66
2023-03-18T00:33:46.026Z,98183.97
2023-03-18T00:36:15.192Z,98182.53
2023-03-18T00:38:46.107Z,98180.31
2023-03-18T00:41:16.268Z,98169.66
2023-03-18T00:43:52.449Z,98172.63
2023-03-18T00:46:27.528Z,98161.44
2023-03-18T00:49:00.124Z,98163.03
2023-03-18T00:51:32.397Z,98159.34
2023-03-18T00:54:06.710Z,98159.50
2023-03-18T00:56:37.674Z,98153.25
2023-03-18T00:59:07.584Z,98152.88
2023-03-18T01:01:36.734Z,98157.44
2023-03-18T01:04:04.963Z,98152.16
2023-03-18T01:06:35.896Z,98146.63
2023-03-18T01:09:07.028Z,98145.41
2023-03-18T01:11:34.982Z,98144.09
2023-03-18T01:14:03.712Z,98134.88
2023-03-18T01:16:31.166Z,98141.66
2023-03-18T01:18:59.944Z,98134.66
2023-03-18T01:21:27.989Z,98137.09
2023-03-18T01:23:55.684Z,98133.34
2023-03-18T01:26:23.812Z,98122.66
2023-03-18T01:28:51.795Z,98118.03
2023-03-18T01:31:19.677Z,98129.41
2023-03-18T01:33:47.936Z,98125.34
2023-03-18T01:36:15.698Z,98135.72
2023-03-18T01:38:43.648Z,98133.00
2023-03-18T01:41:12.579Z,98130.53
2023-03-18T01:43:42.968Z,98124.09
2023-03-18T01:46:39.063Z,98131.81
2023-03-18T01:49:41.212Z,98123.25
2023-03-18T01:52:21.640Z,98122.41
2023-03-18T01:55:08.634Z,98120.19
2023-03-18T01:57:37.495Z,98114.00
2023-03-18T02:00:07.009Z,98126.84
2023-03-18T02:02:34.262Z,98118.34
2023-03-18T02:05:06.561Z,98121.78
2023-03-18T02:07:36.319Z,98121.88
2023-03-18T02:10:30.102Z,98127.38
2023-03-18T02:13:10.490Z,98120.63
2023-03-18T02:15:57.076Z,98116.56
2023-03-18T02:18:40.933Z,98123.50
2023-03-18T02:21:56.592Z,98104.06
2023-03-18T02:25:03.995Z,98111.66
2023-03-18T02:27:40.258Z,98106.94
2023-03-18T02:30:19.100Z,98107.44
2023-03-18T02:32:49.599Z,98113.63
2023-03-18T02:35:17.246Z,98106.09
2023-03-18T02:37:44.789Z,98107.97
2023-03-18T02:40:31.490Z,98104.84
2023-03-18T02:43:19.224Z,98108.69
2023-03-18T02:46:15.463Z,98110.91
2023-03-18T02:48:46.243Z,98103.22
2023-03-18T02:51:17.052Z,98100.44
2023-03-18T02:53:44.692Z,98106.38
2023-03-18T02:56:12.317Z,98105.81
2023-03-18T02:58:41.205Z,98106.97
2023-03-18T03:01:09.976Z,98110.22
2023-03-18T03:03:38.832Z,98109.63
2023-03-18T03:06:07.718Z,98107.06
2023-03-18T03:08:35.338Z,98115.66
2023-03-18T03:11:03.035Z,98114.88
2023-03-18T03:13:30.870Z,98123.41
2023-03-18T03:15:58.154Z,98118.31
2023-03-18T03:18:26.739Z,98121.81
2023-03-18T03:20:54.177Z,98119.72
2023-03-18T03:23:21.887Z,98123.41
2023-03-18T03:25:49.557Z,98121.72
2023-03-18T03:28:17.348Z,98117.31
2023-03-18T03:30:45.997Z,98128.66
2023-03-18T03:33:13.906Z,98121.81
2023-03-18T03:35:42.177Z,98132.41
2023-03-18T03:38:10.710Z,98126.38
2023-03-18T03:40:39.049Z,98128.97
2023-03-18T03:43:07.059Z,98125.56
2023-03-18T03:45:34.681Z,98123.88
2023-03-18T03:48:02.245Z,98125.69
2023-03-18T03:50:29.712Z,98129.88
2023-03-18T03:52:58.376Z,98128.28
2023-03-18T03:55:25.933Z,98126.72
2023-03-18T03:57:53.488Z,98128.63
2023-03-18T04:00:24.235Z,98134.69
2023-03-18T04:02:54.276Z,98125.66
2023-03-18T04:05:24.681Z,98129.19
2023-03-18T04:07:54.265Z,98126.44
2023-03-18T04:10:22.852Z,98134.50
2023-03-18T04:12:51.098Z,98132.22
2023-03-18T04:15:21.983Z,98131.41
2023-03-18T04:17:50.960Z,98140.28
2023-03-18T04:20:18.997Z,98136.69
2023-03-18T04:22:47.055Z,98144.06
2023-03-18T04:25:15.095Z,98132.38
2023-03-18T04:27:43.828Z,98128.59
2023-03-18T04:30:12.738Z,98132.91
2023-03-18T04:32:40.443Z,98136.31
2023-03-18T04:35:09.318Z,98133.78
2023-03-18T04:37:37.587Z,98137.22
2023-03-18T04:40:06.593Z,98132.91
2023-03-18T04:42:34.328Z,98132.00
2023-03-18T04:45:02.082Z,98128.50
2023-03-18T04:47:29.583Z,98126.03
2023-03-18T04:49:56.820Z,98131.16
2023-03-18T04:52:24.687Z,98125.16
2023-03-18T04:54:52.710Z,98138.91
2023-03-18T04:57:20.536Z,98134.56
2023-03-18T04:59:47.972Z,98142.97
2023-03-18T05:02:15.683Z,98136.78
2023-03-18T05:04:44.044Z,98134.97
2023-03-18T05:07:16.618Z,98139.16
2023-03-18T05:09:44.000Z,98140.66
2023-03-18T05:12:16.169Z,98138.69
2023-03-18T05:14:45.092Z,98142.84
2023-03-18T05:17:17.154Z,98145.22
2023-03-18T05:19:47.624Z,98142.59
2023-03-18T05:22:19.021Z,98144.25
2023-03-18T05:24:46.980Z,98151.88
2023-03-18T05:27:18.598Z,98154.22
2023-03-18T05:29:46.439Z,98144.50
2023-03-18T05:32:14.936Z,98157.16
2023-03-18T05:34:42.911Z,98151.09
2023-03-18T05:37:14.054Z,98156.94
2023-03-18T05:39:44.842Z,98154.09
2023-03-18T05:42:14.249Z,98156.28
2023-03-18T05:44:42.272Z,98154.41
2023-03-18T05:47:10.760Z,98158.59
2023-03-18T05:49:38.071Z,98153.84
2023-03-18T05:52:06.419Z,98169.13
2023-03-18T05:54:34.030Z,98162.81
2023-03-18T05:57:01.639Z,98170.31
2023-03-18T05:59:30.265Z,98168.28
2023-03-18T06:01:58.040Z,98162.53
2023-03-18T06:04:27.198Z,98170.94
2023-03-18T06:06:55.385Z,98176.53
2023-03-18T06:09:23.394Z,98172.72
2023-03-18T06:11:51.020Z,98169.75
2023-03-18T06:14:19.601Z,98182.91
2023-03-18T06:16:47.228Z,98182.28
2023-03-18T06:19:14.573Z,98179.19
2023-03-18T06:21:42.292Z,98178.28
2023-03-18T06:24:09.756Z,98179.63
2023-03-18T06:26:37.401Z,98176.56
2023-03-18T06:29:05.364Z,98184.69
2023-03-18T06:31:34.235Z,98181.06
2023-03-18T06:34:01.753Z,98178.38
2023-03-18T06:36:29.285Z,98177.06
2023-03-18T06:38:56.819Z,98178.03
2023-03-18T06:41:24.379Z,98183.09
2023-03-18T06:43:52.208Z,98183.66
2023-03-18T06:46:20.031Z,98189.88
2023-03-18T06:48:47.463Z,98195.59
2023-03-18T06:51:14.995Z,98194.31
2023-03-18T06:53:42.243Z,98197.19
2023-03-18T06:56:10.101Z,98196.38
2023-03-18T06:58:37.873Z,98204.97
2023-03-18T07:01:05.679Z,98206.25
2023-03-18T07:03:33.065Z,98210.03
2023-03-18T07:06:01.313Z,98221.41
2023-03-18T07:08:29.333Z,98223.25
2023-03-18T07:10:57.806Z,98221.66
2023-03-18T07:13:25.348Z,98231.00
2023-03-18T07:15:56.560Z,98223.94
2023-03-18T07:18:24.664Z,98230.13
2023-03-18T07:20:52.638Z,98225.44
2023-03-18T07:23:20.756Z,98222.88
2023-03-18T07:25:48.370Z,98223.69
2023-03-18T07:28:15.930Z,98228.03
2023-03-18T07:30:43.455Z,98225.41
2023-03-18T07:33:10.775Z,98225.94
2023-03-18T07:35:41.137Z,98216.75
2023-03-18T07:38:10.018Z,98215.88
2023-03-18T07:40:38.066Z,98210.03
2023-03-18T07:43:06.865Z,98207.53
2023-03-18T07:45:35.078Z,98206.16
2023-03-18T07:48:02.476Z,98210.63
2023-03-18T07:50:30.006Z,98210.94
2023-03-18T07:52:57.345Z,98212.56
2023-03-18T07:55:25.472Z,98211.03
2023-03-18T07:57:52.838Z,98211.22
2023-03-18T08:00:21.079Z,98215.25
2023-03-18T08:02:48.385Z,98216.66
2023-03-18T08:05:16.217Z,98223.53
2023-03-18T08:07:43.672Z,98215.09
2023-03-18T08:10:12.648Z,98218.78
2023-03-18T08:12:52.168Z,98222.00
2023-03-18T08:15:22.364Z,98225.28
2023-03-18T08:17:51.251Z,98227.25
2023-03-18T08:20:20.274Z,98223.78
2023-03-18T08:22:48.516Z,98228.44
2023-03-18T08:25:17.256Z,98225.13
2023-03-18T08:27:44.591Z,98221.22
2023-03-18T08:30:13.821Z,98221.63
2023-03-18T08:32:42.172Z,98233.81
2023-03-18T08:35:11.742Z,98223.16
2023-03-18T08:37:39.603Z,98230.97
2023-03-18T08:40:09.955Z,98223.97
2023-03-18T08:42:37.388Z,98223.84
2023-03-18T08:45:05.622Z,98227.25
2023-03-18T08:47:32.913Z,98227.41
2023-03-18T08:50:00.499Z,98230.13
2023-03-18T08:52:27.869Z,98227.53
2023-03-18T08:54:55.532Z,98221.25
2023-03-18T08:57:22.929Z,98224.19
2023-03-18T08:59:51.191Z,98229.25
2023-03-18T09:02:18.542Z,98229.41
2023-03-18T09:04:48.318Z,98219.16
2023-03-18T09:07:17.955Z,98232.25
2023-03-18T09:09:46.753Z,98227.59
2023-03-18T09:12:15.029Z,98222.13
2023-03-18T09:14:44.101Z,98212.34
2023-03-18T09:17:11.702Z,98208.09
2023-03-18T09:19:39.688Z,98214.97
2023-03-18T09:22:08.481Z,98207.91
2023-03-18T09:24:36.293Z,98215.00
2023-03-18T09:27:03.752Z,98212.63
2023-03-18T09:29:32.072Z,98203.44
2023-03-18T09:32:00.705Z,98206.31
2023-03-18T09:34:28.412Z,98200.03
2023-03-18T09:36:55.692Z,98201.97
2023-03-18T09:39:23.336Z,98197.25
2023-03-18T09:42:36.395Z,98197.66
2023-03-18T09:45:39.056Z,98194.94
2023-03-18T09:48:46.015Z,98197.25
2023-03-18T09:51:53.927Z,98200.78
2023-03-18T09:54:59.988Z,98205.75
2023-03-18T09:57:36.950Z,98199.06
2023-03-18T10:00:21.130Z,98196.72
2023-03-18T10:02:59.138Z,98199.00
2023-03-18T10:05:36.161Z,98196.00
2023-03-18T10:08:52.985Z,98200.09
2023-03-18T10:11:33.882Z,98196.22
2023-03-18T10:14:27.603Z,98194.06
2023-03-18T10:17:26.084Z,98188.03
2023-03-18T10:19:59.486Z,98197.38
2023-03-18T10:23:03.735Z,98183.34
2023-03-18T10:25:51.683Z,98180.22
2023-03-18T10:28:59.460Z,98178.41
2023-03-18T10:31:57.308Z,98175.91
2023-03-18T10:34:40.457Z,98168.19
2023-03-18T10:37:41.205Z,98172.31
2023-03-18T10:40:16.003Z,98163.69
2023-03-18T10:42:45.638Z,98171.53
2023-03-18T10:45:24.680Z,98168.50
2023-03-18T10:48:12.825Z,98158.78
2023-03-18T10:50:57.053Z,98165.00
2023-03-18T10:53:51.844Z,98170.44
2023-03-18T10:56:19.517Z,98168.28
2023-03-18T10:58:47.149Z,98162.53
2023-03-18T11:01:21.188Z,98160.44
2023-03-18T11:03:54.691Z,98160.38
2023-03-18T11:06:50.256Z,98167.78
2023-03-18T11:09:22.491Z,98150.63
2023-03-18T11:11:57.205Z,98159.44
2023-03-18T11:14:31.761Z,98150.25
2023-03-18T11:17:22.333Z,98164.78
2023-03-18T11:20:08.316Z,98153.56
2023-03-18T11:22:38.128Z,98144.81
2023-03-18T11:25:14.048Z,98137.94
2023-03-18T11:27:46.064Z,98141.00
2023-03-18T11:30:34.994Z,98148.03
2023-03-18T11:33:14.298Z,98136.53
2023-03-18T11:35:55.200Z,98132.22
2023-03-18T11:38:32.768Z,98135.84
2023-03-18T11:41:26.080Z,98129.63
2023-03-18T11:44:03.411Z,98122.97
2023-03-18T11:46:46.086Z,98118.41
2023-03-18T11:49:22.987Z,98113.38
2023-03-18T11:51:59.450Z,98115.59
2023-03-18T11:55:09.622Z,98119.44
2023-03-18T11:58:08.925Z,98107.00
2023-03-18T12:00:50.323Z,98109.41
2023-03-18T12:04:23.491Z,98106.00
2023-03-18T12:07:23.778Z,98103.13
2023-03-18T12:09:57.073Z,98103.56
2023-03-18T12:12:48.465Z,98102.91
2023-03-18T12:15:40.634Z,98094.34
2023-03-18T12:19:01.710Z,98093.28
2023-03-18T12:21:56.363Z,98077.88
2023-03-18T12:25:14.322Z,98091.56
2023-03-18T12:28:22.045Z,98088.91
2023-03-18T12:31:02.559Z,98092.34
2023-03-18T12:34:01.575Z,98083.56
2023-03-18T12:37:12.045Z,98078.19
2023-03-18T12:40:08.023Z,98084.81
2023-03-18T12:42:51.962Z,98079.97
2023-03-18T12:45:23.843Z,98069.72
2023-03-18T12:48:09.408Z,98069.81
2023-03-18T12:50:54.727Z,98062.38
2023-03-18T12:53:46.416Z,98058.91
2023-03-18T12:56:21.629Z,98072.34
2023-03-18T12:59:22.329Z,98067.34
2023-03-18T13:02:18.644Z,98072.13
2023-03-18T13:05:00.728Z,98055.94
2023-03-18T13:07:44.354Z,98061.44
2023-03-18T13:10:23.665Z,98049.09
2023-03-18T13:13:01.024Z,98065.72
2023-03-18T13:15:55.293Z,98054.66
2023-03-18T13:18:39.855Z,98046.69
2023-03-18T13:21:12.652Z,98052.13
2023-03-18T13:24:24.108Z,98051.50
2023-03-18T13:27:19.776Z,98055.38
2023-03-18T13:30:30.078Z,98053.75
2023-03-18T13:33:42.881Z,98041.88
2023-03-18T13:36:43.761Z,98039.91
2023-03-18T13:39:38.226Z,98046.81
2023-03-18T13:42:11.558Z,98049.16
2023-03-18T13:44:55.704Z,98045.88
2023-03-18T13:47:28.689Z,98041.81
2023-03-18T13:50:22.399Z,98041.81
2023-03-18T13:52:55.250Z,98038.91
2023-03-18T13:55:45.087Z,98057.59
2023-03-18T13:58:23.605Z,98046.38
2023-03-18T14:00:57.147Z,98024.66
2023-03-18T14:03:43.182Z,98024.50
2023-03-18T14:06:15.667Z,98027.63
2023-03-18T14:08:43.305Z,98026.19
2023-03-18T14:11:28.782Z,98018.66
2023-03-18T14:14:02.251Z,98020.28
2023-03-18T14:16:36.302Z,98019.44
2023-03-18T14:19:20.892Z,98028.88
2023-03-18T14:21:55.155Z,98012.25
2023-03-18T14:24:26.759Z,98014.72
2023-03-18T14:27:04.444Z,98019.06
2023-03-18T14:29:47.318Z,98004.22
2023-03-18T14:32:35.538Z,98011.31
2023-03-18T14:35:18.561Z,97999.34
2023-03-18T14:38:24.974Z,98003.50
2023-03-18T14:40:57.562Z,97996.56
2023-03-18T14:43:37.464Z,98011.22
2023-03-18T14:46:17.741Z,98006.56
2023-03-18T14:48:46.199Z,98005.94
2023-03-18T14:51:21.179Z,98007.00
2023-03-18T14:53:59.837Z,98002.84
2023-03-18T14:56:38.578Z,97996.59
2023-03-18T14:59:05.978Z,97990.31
2023-03-18T15:01:40.540Z,98008.56
2023-03-18T15:04:18.106Z,97997.41
2023-03-18T15:06:46.481Z,97993.34
2023-03-18T15:09:27.246Z,97998.19
2023-03-18T15:11:55.249Z,97994.97
2023-03-18T15:14:32.650Z,97998.34
2023-03-18T15:17:05.130Z,97995.38
2023-03-18T15:19:32.808Z,98002.31
2023-03-18T15:22:07.157Z,97998.03
2023-03-18T15:24:35.756Z,98000.00
2023-03-18T15:27:14.784Z,98003.84
2023-03-18T15:29:57.748Z,98001.63
2023-03-18T15:32:27.335Z,98002.44
2023-03-18T15:35:11.174Z,97999.94
2023-03-18T15:37:45.386Z,98009.28
2023-03-18T15:40:26.634Z,98002.63
2023-03-18T15:43:12.020Z,98005.63
2023-03-18T15:45:48.108Z,98004.47
2023-03-18T15:48:40.798Z,98002.06
2023-03-18T15:51:48.152Z,98022.25
2023-03-18T15:54:28.106Z,98016.53
2023-03-18T15:56:58.901Z,98010.13
2023-03-18T15:59:31.246Z,98020.22
2023-03-18T16:02:00.572Z,98013.25
2023-03-18T16:04:35.445Z,98014.22
2023-03-18T16:07:03.974Z,98024.28
2023-03-18T16:09:34.459Z,98021.28
2023-03-18T16:12:19.308Z,98030.31
2023-03-18T16:14:51.054Z,98031.06
2023-03-18T16:17:21.818Z,98029.94
2023-03-18T16:19:55.806Z,98027.06
2023-03-18T16:22:23.385Z,98034.50
2023-03-18T16:24:51.126Z,98034.25
2023-03-18T16:27:38.481Z,98040.75
2023-03-18T16:30:16.410Z,98041.31
2023-03-18T16:32:44.888Z,98047.00
2023-03-18T16:35:18.067Z,98048.72
2023-03-18T16:37:48.051Z,98045.00
2023-03-18T16:40:22.168Z,98053.81
2023-03-18T16:42:51.176Z,98044.97
2023-03-18T16:45:25.388Z,98047.34
2023-03-18T16:47:58.836Z,98047.97
2023-03-18T16:50:34.993Z,98043.94
2023-03-18T16:53:03.126Z,98053.97
2023-03-18T16:55:31.472Z,98053.69
2023-03-18T16:58:00.041Z,98055.25
2023-03-18T17:00:32.955Z,98059.31
2023-03-18T17:03:01.772Z,98066.81
2023-03-18T17:05:29.629Z,98062.09
2023-03-18T17:07:56.998Z,98059.63
2023-03-18T17:10:27.170Z,98057.53
2023-03-18T17:13:05.951Z,98060.63
2023-03-18T17:15:38.289Z,98060.22
2023-03-18T17:18:12.059Z,98071.34
2023-03-18T17:20:41.445Z,98065.94
2023-03-18T17:23:32.669Z,98069.56
2023-03-18T17:26:03.038Z,98069.44
2023-03-18T17:28:45.762Z,98077.44
2023-03-18T17:31:14.159Z,98073.16
2023-03-18T17:33:41.998Z,98083.00
2023-03-18T17:36:10.319Z,98085.44
2023-03-18T17:38:37.676Z,98091.91
2023-03-18T17:41:14.828Z,98082.75
2023-03-18T17:43:42.254Z,98079.38
2023-03-18T17:46:09.881Z,98086.97
2023-03-18T17:48:39.685Z,98083.03
2023-03-18T17:51:27.540Z,98083.41
2023-03-18T17:54:00.131Z,98084.13
2023-03-18T17:56:28.884Z,98078.16
2023-03-18T17:58:56.237Z,98082.47
2023-03-18T18:01:27.437Z,98093.25
2023-03-18T18:03:58.200Z,98083.28
2023-03-18T18:06:32.109Z,98087.25
2023-03-18T18:09:01.162Z,98085.00
2023-03-18T18:11:38.027Z,98084.56
2023-03-18T18:14:26.123Z,98084.25
2023-03-18T18:16:59.601Z,98082.97
2023-03-18T18:19:27.160Z,98080.19
2023-03-18T18:21:54.968Z,98073.75
2023-03-18T18:24:30.860Z,98084.88
2023-03-18T18:26:58.471Z,98074.63
2023-03-18T18:29:29.611Z,98080.13
2023-03-18T18:31:57.486Z,98082.19
2023-03-18T18:34:24.980Z,98081.72
2023-03-18T18:36:52.886Z,98072.31
2023-03-18T18:39:21.121Z,98083.44
2023-03-18T18:41:48.931Z,98082.28
2023-03-18T18:44:16.297Z,98082.69
2023-03-18T18:46:43.869Z,98090.22
2023-03-18T18:49:23.784Z,98084.75
2023-03-18T18:51:54.834Z,98075.97
2023-03-18T18:54:24.167Z,98087.69
2023-03-18T18:56:53.112Z,98086.38
2023-03-18T18:59:30.848Z,98087.69
2023-03-18T19:02:00.754Z,98093.94
2023-03-18T19:04:29.258Z,98082.72
2023-03-18T19:06:56.921Z,98081.53
2023-03-18T19:09:26.295Z,98098.09
2023-03-18T19:11:56.435Z,98098.50
2023-03-18T19:14:29.472Z,98092.75
2023-03-18T19:16:59.857Z,98100.16
2023-03-18T19:19:34.983Z,98098.13
2023-03-18T19:22:03.664Z,98096.56
2023-03-18T19:24:39.338Z,98101.34
2023-03-18T19:27:20.112Z,98091.19
2023-03-18T19:29:47.831Z,98103.47
2023-03-18T19:32:21.204Z,98098.69
2023-03-18T19:34:51.723Z,98102.53
2023-03-18T19:37:24.058Z,98102.53
2023-03-18T19:39:51.946Z,98108.13
2023-03-18T19:42:20.120Z,98106.56
2023-03-18T19:44:48.739Z,98111.91
2023-03-18T19:47:29.783Z,98114.53
2023-03-18T19:49:57.159Z,98113.47
2023-03-18T19:52:27.739Z,98110.00
2023-03-18T19:54:55.873Z,98112.75
2023-03-18T19:57:31.888Z,98117.28
2023-03-18T20:00:01.326Z,98119.91
2023-03-18T20:02:33.998Z,98118.13
2023-03-18T20:05:15.065Z,98113.94
2023-03-18T20:07:42.754Z,98111.78
2023-03-18T20:10:14.746Z,98117.16
2023-03-18T20:12:49.323Z,98118.44
2023-03-18T20:15:25.611Z,98118.56
2023-03-18T20:17:54.085Z,98117.75
2023-03-18T20:20:44.640Z,98112.00
2023-03-18T20:23:22.374Z,98122.59
2023-03-18T20:25:51.831Z,98123.66
2023-03-18T20:28:23.767Z,98125.69
2023-03-18T20:30:54.104Z,98124.59
2023-03-18T20:33:23.002Z,98131.97
2023-03-18T20:35:53.932Z,98127.91
2023-03-18T20:38:37.526Z,98126.69
2023-03-18T20:41:07.232Z,98125.13
2023-03-18T20:43:35.031Z,98132.38
2023-03-18T20:46:02.584Z,98137.84
2023-03-18T20:48:30.464Z,98135.78
2023-03-18T20:50:58.433Z,98131.81
2023-03-18T20:53:29.036Z,98139.91
2023-03-18T20:55:56.869Z,98141.94
2023-03-18T20:58:28.243Z,98136.06
2023-03-18T21:00:56.114Z,98133.88
2023-03-18T21:03:33.572Z,98136.97
2023-03-18T21:06:03.979Z,98136.78
2023-03-18T21:08:32.105Z,98141.38
2023-03-18T21:11:02.244Z,98138.03
2023-03-18T21:13:39.020Z,98140.88
2023-03-18T21:16:13.942Z,98148.09
2023-03-18T21:18:47.759Z,98139.22
2023-03-18T21:21:24.896Z,98129.22
2023-03-18T21:23:54.514Z,98133.81
2023-03-18T21:26:23.834Z,98136.47
2023-03-18T21:28:52.603Z,98128.53
2023-03-18T21:31:26.080Z,98132.81
2023-03-18T21:33:55.330Z,98129.16
2023-03-18T21:36:22.617Z,98133.19
2023-03-18T21:38:50.969Z,98125.13
2023-03-18T21:41:36.806Z,98121.28
2023-03-18T21:44:04.685Z,98129.28
2023-03-18T21:46:32.220Z,98123.50
2023-03-18T21:49:00.126Z,98121.69
2023-03-18T21:51:39.624Z,98123.91
2023-03-18T21:54:18.270Z,98111.75
2023-03-18T21:56:45.601Z,98109.66
2023-03-18T21:59:13.297Z,98112.75
2023-03-18T22:01:40.613Z,98120.16
2023-03-18T22:04:08.558Z,98117.94
2023-03-18T22:06:35.851Z,98113.34
2023-03-18T22:09:03.732Z,98111.56
2023-03-18T22:11:31.062Z,98114.03
2023-03-18T22:13:58.693Z,98117.31
2023-03-18T22:16:26.125Z,98111.25
2023-03-18T22:18:53.787Z,98119.53
2023-03-18T22:21:26.298Z,98112.03
2023-03-18T22:23:54.447Z,98119.28
2023-03-18T22:26:22.231Z,98117.97
2023-03-18T22:28:50.772Z,98127.56
2023-03-18T22:31:27.086Z,98125.06
2023-03-18T22:33:55.355Z,98113.72
2023-03-18T22:36:23.892Z,98115.63
2023-03-18T22:38:51.578Z,98116.66
2023-03-18T22:41:31.234Z,98119.34
2023-03-18T22:44:00.220Z,98121.53
2023-03-18T22:46:28.592Z,98123.66
2023-03-18T22:48:56.958Z,98124.50
2023-03-18T22:51:29.729Z,98126.81
2023-03-18T22:53:57.547Z,98124.59
2023-03-18T22:56:24.908Z,98132.78
2023-03-18T22:58:52.666Z,98124.41
2023-03-18T23:01:26.717Z,98124.13
2023-03-18T23:03:54.364Z,98125.44
2023-03-18T23:06:27.158Z,98116.97
2023-03-18T23:08:54.858Z,98115.19
2023-03-18T23:11:22.100Z,98129.06
2023-03-18T23:13:52.210Z,98131.75
2023-03-18T23:16:23.754Z,98126.16
2023-03-18T23:18:52.297Z,98132.22
2023-03-18T23:21:23.687Z,98138.75
2023-03-18T23:23:52.554Z,98130.25
2023-03-18T23:26:20.570Z,98124.97
2023-03-18T23:28:49.141Z,98123.94
2023-03-18T23:31:16.991Z,98124.50
2023-03-18T23:33:45.178Z,98129.78
2023-03-18T23:36:13.119Z,98130.28
2023-03-18T23:38:41.125Z,98139.09
2023-03-18T23:41:08.573Z,98132.59
2023-03-18T23:43:36.863Z,98139.00
2023-03-18T23:46:04.372Z,98124.94
2023-03-18T23:48:32.021Z,98123.47
2023-03-18T23:50:59.359Z,98131.13
2023-03-18T23:53:27.303Z,98123.28
2023-03-18T23:55:54.541Z,98130.50
2023-03-18T23:58:22.326Z,98126.63
